Decoded Metar for UWKE (BEGISHEVO in RUSSIA) (IATA:N/A) | Meteo·Mobile Aviation Weather
aviador You're here:

UWKE Decoded Metar

BEGISHEVO in RUSSIA
Report Time2019-07-22 15:30:00
UTC Time2019-07-22 15:49:58
Flight Rules vfr VFR
Wind280° at 8 kt
W.Decomp.*RWY 21: 4.4 kt HW 6.7 kt RCW
Visibility9999 m
Phenomena:N/A
Clouds:Scattered CB 033 Hf
Expected CloudBase > 2,400 ft AGL from Temp-Dew spread
CeilingNone
Temp20°C (ISA +6)
Dew Point14°C (69% RH)
AAT18.4°C
QNH1009 hPa
Density Alt1,729 ft
Elevation643 ft
Report Wrong Elevation
Raw Report
UWKE 221530Z 28004MPS 9999 SCT033CB 20/14 Q1009 R21/290055 NOSIG
RMK QFE740/0987=

Extra information for UWKE:More info

Metar Taf Metar & Taf Last 4 Metars F.Rules Stats Wind Profile Meteogram Temp Stats Airport Information Weather charts Add Link Nearby VenuesMetar ALERT Operation Metar Decoded Social comments